IT-0046 weather

CLOSED CASCINA GRECIA
Cuceglio (TO), Piedmont, Italy

Public forecast

Using degrees Celsius for public forecast. Weather courtesy of forecast.io.

METAR (pilot weather report)

Closest report is Turin Airport, 10.6 nm (19.6 km) SSW. Retrieved 2019/07/18 04:20 UTC (14 minutes ago):

LIMF 180420Z 31003KT CAVOK 20/16 Q1011

TAF (pilot weather forecast)

Forecast is more than 12 hours old.

Closest forecast is Turin Airport, 10.6 nm (19.6 km) SSW. Retrieved 2019/07/17 00:00 UTC (1 day ago):

TAF LIMF 172300Z 1800/1824 VRB05KT 9999 SCT070 PROB30 TEMPO 1820/1824 TSRA